Airfield :
LOGIN :

Register | Disclaimer

   EN    FR    IT 

 










Legend :    VFR   Marginal VFR   IFR   Intensive IFR   Very Intensive IFR
Visi :
Ceiling :
>= 8 km
>= 3000ft
5 to 8 km
1000 to 3000 ft
1500m to 5 km
500 to 1000 ft
800 to 1500m
200 to 500 ft
< 800m
< 200 ft
Symbols :   Thunderstorms  Fog  Heavy snow  Heavy precipitations  Wind > 20 kt
SIGMETs :     Misc.  Thunderstorms  Icing  Turbulence  Mountain Waves  Volcanic Ashes






- Airport Elevation : 1020 ft
- IATA code : ILZ


LZZI - Žilina

CURRENT METAR :
  • 271200Z 22009KT 9999 VCSH FEW016TCU BKN042 04/M01 Q1005

EXPIRED METARs :
  • 271130Z 23006KT 200V270 9999 4500SW VCSH FEW018TCU SCT039 BKN048 04/M03 Q1005
  • 271100Z 23009KT 9999 VCSH FEW030TCU SCT039 BKN050 04/M02 Q1005
  • 271030Z 23008KT 9999 FEW039 BKN049 04/M02 Q1005
  • 271000Z 22009KT 9999 BKN040 BKN049 04/M02 Q1005
  • 270930Z 25009KT 220V280 9999 FEW030 BKN040 03/M02 Q1005

TAF TAF LZZI
Valid from the 27 at 12:00 until the 27 at 21:00 UTC


271100Z 2712/2721 23006KT 9999 BKN039 BKN050
TEMPO 2712/2718 -SHRA FEW018 BKN030



MET'MAP, your aeronautical weather chart ! - Copyright ORBIFLY December 2007 - Disclaimer

ORBIFLY MET'MAP TEAM :

Programming & Development : Alexandra Zaïnal
Concept & original design : Baudouin d'Aumeries
Assistance for programming : Marc-Olivier Méhu
Technical & hardware support : Manuel Goepfert

Contact : metmap@orbifly.com




SOURCES & CREDITS :

   NOAA